Time;durP1;ratioP1;P1;durP2;ratioP2;P2;SDS_P1;SDS_P2;PMS_P1;PMS_P2;Temp;Humidity;BMP_temperature;BMP_pressure;BME280_temperature;BME280_humidity;BME280_pressure;Samples;Min_cycle;Max_cycle;Signal;HPM_P1;HPM_P2
2022/02/11 00:08:26;;;;;;;;;;;3.40;90.70;;;;;;5058098;28;19932;-81
2022/02/11 00:10:51;;;;;;;;;;;3.40;90.60;;;;;;5061937;28;19912;-81
2022/02/11 00:13:17;;;;;;;;;;;3.40;90.60;;;;;;5066661;28;19916;-81
2022/02/11 00:15:43;;;;;;;;;;;3.40;90.60;;;;;;5057028;28;19913;-80
2022/02/11 00:18:11;;;;;;;;;;;3.40;90.80;;;;;;5061590;28;20688;-81
2022/02/11 00:20:37;;;;;;;;;;;3.50;91.50;;;;;;5059253;28;19909;-81
2022/02/11 00:23:04;;;;;;;;;;;3.50;91.60;;;;;;5057834;28;19920;-80
2022/02/11 00:25:32;;;;;;;;;;;3.50;91.70;;;;;;5057570;28;20398;-80
2022/02/11 00:33:38;;;;;;;;;;;3.50;92.30;;;;;;5071026;28;19913;-80
2022/02/11 00:36:06;;;;;;;;;;;3.50;92.30;;;;;;5056629;28;19908;-82
2022/02/11 01:03:16;;;;;;;;;;;3.00;91.00;;;;;;5077589;28;20329;-80
2022/02/11 01:05:42;;;;;;;;;;;3.00;90.90;;;;;;5062057;28;20461;-81
2022/02/11 01:08:08;;;;;;;;;;;3.00;90.70;;;;;;5057729;28;19909;-81
2022/02/11 01:10:34;;;;;;;;;;;2.90;90.60;;;;;;5057950;28;19920;-81
2022/02/11 01:12:59;;;;;;;;;;;2.90;90.60;;;;;;5067610;28;19913;-82
2022/02/11 01:15:27;;;;;;;;;;;2.90;90.60;;;;;;5056866;28;20423;-83
2022/02/11 01:17:57;;;;;;;;;;;2.80;90.50;;;;;;5058921;28;19962;-82
2022/02/11 01:20:41;;;;;;;;;;;2.80;90.50;;;;;;5061509;28;20379;-82
2022/02/11 01:26:25;;;;;;;;;;;2.80;90.60;;;;;;5057932;28;19916;-82
2022/02/11 01:55:25;;;;;;;;;;;2.70;91.20;;;;;;5060419;28;19915;-82
2022/02/11 02:25:01;;;;;;;;;;;2.60;91.10;;;;;;5059756;28;19909;-84
2022/02/11 02:58:23;;;;;;;;;;;2.60;91.80;;;;;;5078931;28;19988;-84
2022/02/11 03:50:33;;;;;;;;;;;2.60;92.20;;;;;;5058050;28;19916;-84
2022/02/11 03:58:31;;;;;;;;;;;2.50;92.50;;;;;;5057812;28;19909;-81
2022/02/11 04:56:55;;;;;;;;;;;1.60;90.70;;;;;;5077628;28;19908;-81
2022/02/11 04:59:36;;;;;;;;;;;1.60;90.60;;;;;;5076302;28;20185;-81
2022/02/11 05:02:01;;;;;;;;;;;1.50;90.60;;;;;;5080310;28;19943;-81
2022/02/11 05:04:28;;;;;;;;;;;1.50;90.60;;;;;;5075885;28;19913;-81
2022/02/11 05:06:54;;;;;;;;;;;1.50;90.60;;;;;;5061262;28;19980;-81
2022/02/11 05:09:20;;;;;;;;;;;1.40;90.50;;;;;;5061346;28;19909;-81
2022/02/11 05:11:46;;;;;;;;;;;1.40;90.50;;;;;;5072793;28;20018;-81
2022/02/11 05:14:13;;;;;;;;;;;1.40;90.50;;;;;;5062570;28;19962;-81
2022/02/11 05:16:38;;;;;;;;;;;1.40;90.50;;;;;;5061451;28;19937;-81
2022/02/11 05:19:04;;;;;;;;;;;1.40;90.50;;;;;;5067617;28;19909;-81
2022/02/11 05:21:30;;;;;;;;;;;1.30;90.80;;;;;;5061302;28;19976;-80
2022/02/11 05:23:55;;;;;;;;;;;1.40;91.50;;;;;;5060775;28;19952;-80
2022/02/11 05:26:21;;;;;;;;;;;1.40;92.00;;;;;;5061361;28;19909;-81
2022/02/11 05:28:47;;;;;;;;;;;1.40;92.20;;;;;;5060618;28;20268;-80
2022/02/11 05:31:12;;;;;;;;;;;1.40;92.50;;;;;;5059445;28;19912;-80
2022/02/11 05:33:38;;;;;;;;;;;1.40;92.70;;;;;;5072315;28;19916;-80
2022/02/11 05:36:04;;;;;;;;;;;1.50;93.00;;;;;;5060925;28;19930;-80
2022/02/11 05:38:29;;;;;;;;;;;1.50;93.20;;;;;;5060591;28;19909;-80
2022/02/11 05:40:55;;;;;;;;;;;1.50;93.20;;;;;;5060510;28;19916;-80
2022/02/11 05:43:21;;;;;;;;;;;1.40;93.20;;;;;;5060152;28;19917;-80
2022/02/11 05:45:46;;;;;;;;;;;1.40;93.20;;;;;;5060566;28;19913;-80
2022/02/11 05:48:12;;;;;;;;;;;1.40;93.20;;;;;;5060637;28;19947;-80
2022/02/11 05:50:37;;;;;;;;;;;1.40;93.30;;;;;;5060471;28;19936;-81
2022/02/11 05:53:07;;;;;;;;;;;1.40;93.10;;;;;;5060289;28;19909;-81
2022/02/11 05:55:34;;;;;;;;;;;1.30;92.90;;;;;;5060261;28;20276;-81
2022/02/11 05:57:59;;;;;;;;;;;1.30;92.90;;;;;;5059972;28;20382;-81
2022/02/11 06:00:26;;;;;;;;;;;1.30;93.10;;;;;;5059149;28;19909;-80
2022/02/11 06:02:52;;;;;;;;;;;1.30;93.10;;;;;;5060012;28;19909;-80
2022/02/11 06:05:19;;;;;;;;;;;1.30;93.10;;;;;;5067802;28;20334;-81
2022/02/11 06:07:45;;;;;;;;;;;1.20;92.80;;;;;;5060058;28;19909;-82
2022/02/11 06:10:10;;;;;;;;;;;1.20;92.50;;;;;;5058577;28;19909;-81
2022/02/11 06:12:36;;;;;;;;;;;1.30;92.70;;;;;;5072090;28;19945;-81
2022/02/11 06:15:02;;;;;;;;;;;1.20;92.90;;;;;;5059746;28;19909;-80
2022/02/11 06:17:27;;;;;;;;;;;1.20;93.20;;;;;;5058486;28;19908;-81
2022/02/11 06:19:57;;;;;;;;;;;1.30;93.20;;;;;;5066139;28;19913;-81
2022/02/11 06:22:22;;;;;;;;;;;1.20;93.00;;;;;;5059733;28;20421;-81
2022/02/11 06:24:48;;;;;;;;;;;1.10;92.60;;;;;;5059930;28;19908;-81
2022/02/11 06:27:15;;;;;;;;;;;1.10;92.30;;;;;;5059560;28;19908;-81
2022/02/11 06:29:41;;;;;;;;;;;1.10;92.10;;;;;;5059502;28;19948;-81
2022/02/11 06:32:07;;;;;;;;;;;1.10;91.90;;;;;;5063092;28;19912;-83
2022/02/11 06:34:33;;;;;;;;;;;1.10;91.80;;;;;;5066949;28;19913;-83
2022/02/11 06:36:58;;;;;;;;;;;1.00;91.60;;;;;;5059416;28;19916;-82
2022/02/11 06:39:25;;;;;;;;;;;1.00;91.60;;;;;;5059537;28;19909;-83
2022/02/11 06:41:53;;;;;;;;;;;1.00;91.50;;;;;;5059673;28;19964;-82
2022/02/11 06:44:19;;;;;;;;;;;0.90;91.40;;;;;;5059138;28;19952;-83
2022/02/11 06:46:45;;;;;;;;;;;0.90;91.40;;;;;;5059338;28;19909;-82
2022/02/11 06:49:11;;;;;;;;;;;0.90;91.30;;;;;;5059413;28;19916;-82
2022/02/11 06:51:36;;;;;;;;;;;0.80;91.30;;;;;;5057795;28;19917;-82
2022/02/11 06:54:02;;;;;;;;;;;0.80;91.40;;;;;;5059292;28;20479;-82
2022/02/11 06:56:28;;;;;;;;;;;0.80;91.40;;;;;;5059092;28;19977;-83
2022/02/11 06:58:55;;;;;;;;;;;0.80;91.30;;;;;;5057842;28;19948;-83
2022/02/11 07:01:21;;;;;;;;;;;0.70;91.20;;;;;;5059419;28;19909;-81
2022/02/11 07:03:47;;;;;;;;;;;0.70;91.20;;;;;;5065232;28;19931;-79
2022/02/11 07:06:13;;;;;;;;;;;0.70;91.20;;;;;;5059842;28;19913;-79
2022/02/11 07:08:38;;;;;;;;;;;0.70;91.50;;;;;;5057951;28;19909;-79
2022/02/11 07:11:04;;;;;;;;;;;0.70;91.10;;;;;;5064654;28;19928;-79
2022/02/11 07:13:30;;;;;;;;;;;0.70;91.10;;;;;;5066062;28;19908;-79
2022/02/11 07:15:56;;;;;;;;;;;0.70;91.00;;;;;;5057675;28;19916;-79
2022/02/11 07:18:21;;;;;;;;;;;0.60;90.90;;;;;;5064240;28;20299;-79
2022/02/11 07:20:49;;;;;;;;;;;0.60;90.90;;;;;;5059752;28;19909;-79
2022/02/11 07:23:15;;;;;;;;;;;0.60;90.90;;;;;;5058219;28;20433;-79
2022/02/11 07:25:41;;;;;;;;;;;0.60;90.90;;;;;;5058507;28;19909;-79
2022/02/11 07:28:07;;;;;;;;;;;0.60;91.00;;;;;;5058459;28;19931;-79
2022/02/11 07:30:33;;;;;;;;;;;0.60;91.10;;;;;;5058336;28;19917;-81
2022/02/11 07:32:59;;;;;;;;;;;0.60;91.00;;;;;;5069375;28;20282;-81
2022/02/11 07:35:26;;;;;;;;;;;0.60;91.00;;;;;;5058691;28;19948;-81
2022/02/11 07:37:52;;;;;;;;;;;0.60;91.10;;;;;;5058582;28;19944;-81
2022/02/11 07:40:18;;;;;;;;;;;0.60;91.10;;;;;;5058175;28;20433;-81
2022/02/11 07:42:45;;;;;;;;;;;0.60;91.10;;;;;;5058540;28;19920;-79
2022/02/11 07:45:11;;;;;;;;;;;0.60;91.10;;;;;;5058260;28;19990;-80
2022/02/11 07:47:37;;;;;;;;;;;0.60;91.00;;;;;;5058263;28;19959;-81
2022/02/11 07:50:04;;;;;;;;;;;0.60;91.20;;;;;;5058259;28;19940;-80
2022/02/11 07:52:29;;;;;;;;;;;0.70;91.80;;;;;;5058075;28;19960;-81
2022/02/11 07:54:55;;;;;;;;;;;0.70;91.90;;;;;;5058038;28;19915;-81
2022/02/11 07:57:20;;;;;;;;;;;0.70;91.70;;;;;;5058086;28;19955;-81
2022/02/11 07:59:46;;;;;;;;;;;0.70;91.50;;;;;;5057814;28;20395;-82
2022/02/11 08:02:12;;;;;;;;;;;0.70;91.40;;;;;;5058112;28;19909;-82
2022/02/11 08:04:38;;;;;;;;;;;0.70;91.30;;;;;;5066388;28;19916;-82
2022/02/11 08:07:03;;;;;;;;;;;0.70;91.20;;;;;;5058024;28;19913;-83
2022/02/11 08:09:29;;;;;;;;;;;0.80;91.20;;;;;;5057207;28;19916;-82
2022/02/11 08:11:57;;;;;;;;;;;0.80;91.20;;;;;;5071068;28;19944;-83
2022/02/11 08:14:23;;;;;;;;;;;0.80;91.20;;;;;;5070896;28;19909;-83
2022/02/11 08:16:49;;;;;;;;;;;0.80;91.20;;;;;;5058152;28;19909;-83
2022/02/11 08:19:18;;;;;;;;;;;0.90;91.20;;;;;;5063909;28;19915;-84
2022/02/11 08:21:44;;;;;;;;;;;0.90;91.40;;;;;;5057850;28;19913;-83
2022/02/11 08:24:10;;;;;;;;;;;0.90;91.30;;;;;;5057902;28;19909;-83
2022/02/11 08:26:36;;;;;;;;;;;1.00;91.30;;;;;;5057734;28;19920;-84
2022/02/11 08:29:02;;;;;;;;;;;1.00;91.20;;;;;;5058000;28;20241;-84
2022/02/11 08:31:28;;;;;;;;;;;1.10;91.70;;;;;;5056186;28;19913;-84
2022/02/11 08:33:54;;;;;;;;;;;1.10;91.80;;;;;;5069188;28;20423;-83
2022/02/11 08:36:20;;;;;;;;;;;1.20;91.80;;;;;;5058073;28;19948;-83
2022/02/11 08:38:46;;;;;;;;;;;1.20;91.80;;;;;;5061987;28;19912;-83
2022/02/11 08:41:11;;;;;;;;;;;1.20;91.70;;;;;;5061625;28;20306;-83
2022/02/11 08:43:37;;;;;;;;;;;1.30;91.60;;;;;;5061236;28;19921;-83
2022/02/11 08:46:04;;;;;;;;;;;1.30;91.60;;;;;;5061735;28;19935;-83
2022/02/11 08:48:29;;;;;;;;;;;1.40;91.60;;;;;;5061929;28;19972;-82
2022/02/11 08:50:55;;;;;;;;;;;1.40;91.60;;;;;;5061397;28;20379;-81
2022/02/11 08:53:22;;;;;;;;;;;1.50;91.50;;;;;;5061671;28;19915;-81
2022/02/11 08:55:48;;;;;;;;;;;1.50;91.70;;;;;;5061599;28;19916;-81
2022/02/11 08:58:14;;;;;;;;;;;1.60;92.30;;;;;;5059864;28;19909;-81
2022/02/11 09:00:40;;;;;;;;;;;1.60;91.90;;;;;;5061609;28;19909;-80
2022/02/11 09:03:05;;;;;;;;;;;1.70;91.80;;;;;;5062832;28;20338;-80
2022/02/11 09:05:31;;;;;;;;;;;1.80;91.70;;;;;;5066879;28;19915;-80
2022/02/11 09:07:58;;;;;;;;;;;1.90;91.80;;;;;;5061121;28;19945;-80
2022/02/11 09:10:26;;;;;;;;;;;2.30;92.50;;;;;;5060478;28;20003;-82
2022/02/11 09:12:52;;;;;;;;;;;3.00;92.80;;;;;;5073773;28;19964;-83
2022/02/11 09:15:19;;;;;;;;;;;3.70;92.60;;;;;;5061106;28;19908;-81
2022/02/11 09:17:45;;;;;;;;;;;4.40;92.70;;;;;;5061588;28;19909;-84
2022/02/11 09:20:11;;;;;;;;;;;5.10;92.70;;;;;;5067132;28;19916;-85
2022/02/11 09:22:37;;;;;;;;;;;5.80;92.70;;;;;;5060992;28;20514;-86
2022/02/11 09:25:04;;;;;;;;;;;6.40;92.40;;;;;;5059451;28;19913;-85
2022/02/11 09:27:29;;;;;;;;;;;7.00;92.20;;;;;;5061148;28;19909;-85
2022/02/11 09:29:55;;;;;;;;;;;7.40;92.00;;;;;;5060498;28;19916;-86
2022/02/11 09:32:20;;;;;;;;;;;7.70;91.60;;;;;;5066499;28;19912;-87
2022/02/11 09:34:46;;;;;;;;;;;8.00;91.70;;;;;;5066770;28;20016;-88
2022/02/11 09:37:12;;;;;;;;;;;8.60;91.80;;;;;;5060997;28;19909;-88
2022/02/11 09:39:37;;;;;;;;;;;9.10;91.60;;;;;;5059450;28;20344;-81
2022/02/11 09:42:03;;;;;;;;;;;9.70;91.20;;;;;;5060690;28;20264;-88
2022/02/11 09:44:31;;;;;;;;;;;10.20;90.70;;;;;;5060196;28;19927;-88
2022/02/11 09:46:57;;;;;;;;;;;10.70;90.20;;;;;;5060266;28;20278;-88
2022/02/11 09:49:23;;;;;;;;;;;11.10;89.70;;;;;;5060628;28;20451;-89
2022/02/11 09:51:49;;;;;;;;;;;11.50;88.80;;;;;;5059165;28;20058;-88
2022/02/11 09:54:18;;;;;;;;;;;11.80;87.90;;;;;;5060303;28;19955;-88
2022/02/11 09:56:44;;;;;;;;;;;12.10;87.00;;;;;;5060575;28;19915;-88
2022/02/11 09:59:10;;;;;;;;;;;12.30;85.70;;;;;;5059979;28;19995;-88
2022/02/11 10:01:38;;;;;;;;;;;12.40;85.50;;;;;;5060505;28;19959;-89
2022/02/11 10:04:10;;;;;;;;;;;12.70;84.90;;;;;;5068544;28;19908;-89
2022/02/11 10:06:37;;;;;;;;;;;12.90;84.30;;;;;;5060282;28;19913;-90
2022/02/11 10:09:03;;;;;;;;;;;13.10;83.30;;;;;;5059934;28;19909;-90
2022/02/11 10:11:29;;;;;;;;;;;13.20;82.00;;;;;;5069470;28;19913;-89
2022/02/11 10:13:56;;;;;;;;;;;13.40;81.10;;;;;;5063497;28;19940;-90
2022/02/11 10:16:25;;;;;;;;;;;13.80;80.50;;;;;;5060158;28;19948;-89
2022/02/11 10:18:51;;;;;;;;;;;14.20;80.30;;;;;;5066046;28;19919;-89
2022/02/11 10:21:20;;;;;;;;;;;14.60;79.20;;;;;;5059998;28;19955;-88
2022/02/11 10:23:47;;;;;;;;;;;15.10;79.00;;;;;;5059609;28;19913;-89
2022/02/11 10:26:15;;;;;;;;;;;15.50;76.60;;;;;;5060057;28;20287;-89
2022/02/11 10:28:44;;;;;;;;;;;16.00;76.50;;;;;;5059315;28;19909;-88
2022/02/11 10:31:09;;;;;;;;;;;16.40;75.60;;;;;;5059751;28;19916;-88
2022/02/11 10:33:55;;;;;;;;;;;16.80;74.10;;;;;;5071004;28;19909;-87
2022/02/11 10:36:22;;;;;;;;;;;17.20;73.20;;;;;;5059497;28;20058;-87
2022/02/11 10:39:01;;;;;;;;;;;17.60;71.80;;;;;;5058393;28;20034;-87
2022/02/11 10:41:27;;;;;;;;;;;17.90;72.40;;;;;;5058069;28;19909;-87
2022/02/11 10:44:09;;;;;;;;;;;18.30;71.10;;;;;;5059272;28;19931;-87
2022/02/11 10:46:36;;;;;;;;;;;18.50;68.30;;;;;;5057925;28;19991;-88
2022/02/11 10:49:02;;;;;;;;;;;18.70;69.70;;;;;;5059466;28;20338;-88
2022/02/11 10:51:28;;;;;;;;;;;18.90;68.80;;;;;;5059113;28;19913;-88
2022/02/11 10:53:54;;;;;;;;;;;19.30;68.80;;;;;;5059202;28;19916;-88
2022/02/11 10:56:21;;;;;;;;;;;19.60;69.60;;;;;;5059103;28;19959;-89
2022/02/11 10:58:57;;;;;;;;;;;19.90;69.00;;;;;;5058423;28;19916;-89
2022/02/11 11:01:26;;;;;;;;;;;20.20;64.90;;;;;;5059115;28;19932;-89
2022/02/11 11:03:51;;;;;;;;;;;20.30;62.70;;;;;;5065856;28;19999;-90
2022/02/11 11:06:18;;;;;;;;;;;20.30;64.00;;;;;;5059086;28;19944;-90
2022/02/11 11:08:46;;;;;;;;;;;20.40;61.80;;;;;;5058938;28;19920;-90
2022/02/11 11:11:12;;;;;;;;;;;20.40;62.20;;;;;;5064595;28;19912;-90
2022/02/11 11:13:38;;;;;;;;;;;20.40;64.70;;;;;;5064628;28;19916;-89
2022/02/11 11:16:06;;;;;;;;;;;20.50;60.20;;;;;;5059085;28;19913;-90
2022/02/11 11:18:32;;;;;;;;;;;20.60;57.40;;;;;;5063840;28;19908;-92
2022/02/11 11:20:58;;;;;;;;;;;20.60;59.20;;;;;;5058950;28;19909;-91
2022/02/11 11:23:26;;;;;;;;;;;20.60;57.60;;;;;;5058829;28;19913;-91
2022/02/11 11:25:54;;;;;;;;;;;20.60;55.60;;;;;;5058692;28;19916;-91
2022/02/11 11:28:38;;;;;;;;;;;20.70;55.70;;;;;;5058200;28;20425;-91
2022/02/11 11:31:13;;;;;;;;;;;20.60;56.30;;;;;;5058444;28;19920;-90
2022/02/11 11:33:39;;;;;;;;;;;20.70;54.90;;;;;;5068902;28;19952;-90
2022/02/11 11:36:06;;;;;;;;;;;20.70;55.40;;;;;;5058454;28;20311;-90
2022/02/11 11:38:54;;;;;;;;;;;20.70;55.30;;;;;;5058324;28;20279;-80
2022/02/11 11:41:21;;;;;;;;;;;20.70;57.20;;;;;;5058371;28;20338;-89
2022/02/11 11:43:54;;;;;;;;;;;20.90;56.20;;;;;;5058151;28;19929;-89
2022/02/11 11:46:20;;;;;;;;;;;21.10;56.50;;;;;;5058284;28;19909;-92
2022/02/11 11:48:57;;;;;;;;;;;21.20;54.00;;;;;;5058386;28;19916;-88
2022/02/11 11:51:24;;;;;;;;;;;21.20;54.40;;;;;;5057987;28;19917;-88
2022/02/11 11:53:50;;;;;;;;;;;21.10;55.20;;;;;;5058052;28;19916;-89
2022/02/11 11:56:32;;;;;;;;;;;21.20;56.10;;;;;;5058060;28;19909;-88
2022/02/11 11:59:11;;;;;;;;;;;21.30;56.90;;;;;;5057914;28;19959;-88
2022/02/11 12:01:49;;;;;;;;;;;21.50;56.30;;;;;;5065772;28;20367;-88
2022/02/11 12:04:17;;;;;;;;;;;21.70;56.50;;;;;;5075169;28;19909;-88
2022/02/11 12:06:42;;;;;;;;;;;21.80;54.90;;;;;;5056686;28;19909;-88
2022/02/11 12:09:08;;;;;;;;;;;21.80;51.80;;;;;;5057726;28;19944;-88
2022/02/11 12:11:34;;;;;;;;;;;21.60;53.10;;;;;;5068052;28;19912;-87
2022/02/11 12:14:00;;;;;;;;;;;21.50;53.80;;;;;;5059337;28;19912;-88
2022/02/11 12:16:26;;;;;;;;;;;21.40;52.20;;;;;;5057899;28;19916;-90
2022/02/11 12:18:52;;;;;;;;;;;21.30;54.10;;;;;;5063863;28;19909;-88
2022/02/11 12:21:18;;;;;;;;;;;21.40;53.20;;;;;;5057749;28;19909;-88
2022/02/11 12:29:11;;;;;;;;;;;20.80;54.70;;;;;;5065752;28;19947;-88
2022/02/11 12:31:38;;;;;;;;;;;20.80;53.90;;;;;;5076281;28;19913;-87
2022/02/11 12:34:11;;;;;;;;;;;20.80;54.60;;;;;;5069056;28;19955;-87
2022/02/11 12:36:37;;;;;;;;;;;20.80;55.20;;;;;;5057495;28;19917;-87
2022/02/11 12:39:03;;;;;;;;;;;20.90;53.20;;;;;;5057745;28;20016;-88
2022/02/11 12:41:45;;;;;;;;;;;20.90;51.20;;;;;;5057702;28;20375;-88
2022/02/11 12:44:21;;;;;;;;;;;20.80;52.10;;;;;;5055980;28;19931;-88
2022/02/11 12:46:47;;;;;;;;;;;20.70;52.30;;;;;;5064603;28;19999;-88
2022/02/11 12:49:12;;;;;;;;;;;20.70;52.10;;;;;;5077498;28;19947;-88
2022/02/11 12:51:38;;;;;;;;;;;20.80;52.20;;;;;;5077921;28;20325;-88
2022/02/11 12:54:04;;;;;;;;;;;20.70;52.90;;;;;;5077220;28;20541;-88
2022/02/11 12:56:33;;;;;;;;;;;20.70;54.00;;;;;;5077643;28;20383;-88
2022/02/11 12:59:08;;;;;;;;;;;20.70;54.90;;;;;;5077391;28;19959;-88
2022/02/11 13:01:34;;;;;;;;;;;20.80;54.00;;;;;;5077510;28;20342;-88
2022/02/11 13:04:00;;;;;;;;;;;20.80;52.50;;;;;;5075698;28;19912;-88
2022/02/11 13:06:26;;;;;;;;;;;20.60;51.30;;;;;;5057501;28;20439;-88
2022/02/11 13:09:02;;;;;;;;;;;20.30;53.00;;;;;;5057241;28;19909;-88
2022/02/11 13:11:28;;;;;;;;;;;20.20;53.90;;;;;;5066724;28;19919;-88
2022/02/11 13:14:06;;;;;;;;;;;20.10;52.60;;;;;;5059815;28;19912;-87
2022/02/11 13:16:33;;;;;;;;;;;20.10;53.30;;;;;;5057245;28;19909;-88
2022/02/11 13:19:12;;;;;;;;;;;20.20;49.80;;;;;;5063180;28;19932;-87
2022/02/11 13:21:38;;;;;;;;;;;19.90;48.50;;;;;;5057788;28;19996;-88
2022/02/11 13:24:05;;;;;;;;;;;19.70;51.50;;;;;;5060827;28;19913;-88
2022/02/11 13:26:31;;;;;;;;;;;19.60;52.50;;;;;;5061021;28;19908;-88
2022/02/11 13:28:57;;;;;;;;;;;19.50;52.70;;;;;;5060611;28;19979;-87
2022/02/11 13:31:23;;;;;;;;;;;19.40;53.70;;;;;;5060861;28;19912;-88
2022/02/11 13:34:02;;;;;;;;;;;19.40;54.40;;;;;;5072022;28;20368;-88
2022/02/11 13:36:27;;;;;;;;;;;19.40;54.50;;;;;;5060807;28;19909;-87
2022/02/11 13:38:53;;;;;;;;;;;19.40;53.90;;;;;;5060794;28;19939;-87
2022/02/11 13:41:27;;;;;;;;;;;19.40;54.60;;;;;;5060668;28;19931;-87
2022/02/11 13:43:58;;;;;;;;;;;19.40;54.80;;;;;;5060443;28;19921;-87
2022/02/11 13:46:24;;;;;;;;;;;19.30;54.40;;;;;;5059389;28;19909;-88
2022/02/11 13:48:52;;;;;;;;;;;19.30;53.20;;;;;;5060680;28;19913;-87
2022/02/11 13:51:17;;;;;;;;;;;19.20;53.10;;;;;;5060312;28;19974;-87
2022/02/11 13:53:45;;;;;;;;;;;19.10;53.20;;;;;;5060534;28;19955;-87
2022/02/11 13:56:12;;;;;;;;;;;19.00;51.80;;;;;;5060539;28;19918;-87
2022/02/11 13:58:39;;;;;;;;;;;18.80;53.00;;;;;;5060166;28;19909;-87
2022/02/11 14:01:28;;;;;;;;;;;18.60;50.90;;;;;;5060136;28;19913;-87
2022/02/11 14:03:58;;;;;;;;;;;18.40;53.50;;;;;;5067833;28;19908;-86
2022/02/11 14:06:23;;;;;;;;;;;18.10;54.10;;;;;;5060297;28;19913;-87
2022/02/11 14:08:49;;;;;;;;;;;17.90;55.40;;;;;;5060228;28;20379;-81
2022/02/11 14:11:19;;;;;;;;;;;17.70;54.30;;;;;;5066270;28;19912;-77
2022/02/11 14:13:46;;;;;;;;;;;17.60;55.40;;;;;;5064896;28;19931;-82
2022/02/11 14:16:12;;;;;;;;;;;17.50;55.70;;;;;;5060134;28;19908;-80
2022/02/11 14:18:38;;;;;;;;;;;17.30;56.10;;;;;;5066232;28;19916;-83
2022/02/11 14:21:04;;;;;;;;;;;17.20;55.80;;;;;;5060214;28;19913;-77
2022/02/11 14:23:30;;;;;;;;;;;17.10;57.50;;;;;;5059834;28;19916;-80
2022/02/11 14:25:55;;;;;;;;;;;17.00;56.90;;;;;;5060002;28;20011;-78
2022/02/11 14:28:24;;;;;;;;;;;16.80;57.40;;;;;;5059671;28;19948;-85
2022/02/11 14:30:50;;;;;;;;;;;16.60;57.70;;;;;;5059938;28;19913;-85
2022/02/11 14:33:15;;;;;;;;;;;16.40;56.10;;;;;;5070350;28;19915;-79
2022/02/11 14:35:41;;;;;;;;;;;16.10;55.80;;;;;;5059846;28;19944;-80
2022/02/11 14:38:07;;;;;;;;;;;15.90;57.50;;;;;;5058180;28;19908;-87
2022/02/11 14:40:33;;;;;;;;;;;15.70;57.80;;;;;;5059637;28;20347;-85
2022/02/11 14:43:00;;;;;;;;;;;15.50;58.00;;;;;;5059028;28;20314;-84
2022/02/11 14:45:26;;;;;;;;;;;15.30;58.50;;;;;;5059921;28;19970;-82
2022/02/11 14:47:51;;;;;;;;;;;15.10;58.30;;;;;;5059315;28;19972;-85
2022/02/11 14:50:17;;;;;;;;;;;15.00;57.90;;;;;;5059538;28;19909;-85
2022/02/11 14:52:43;;;;;;;;;;;14.90;58.50;;;;;;5059754;28;19909;-89
2022/02/11 14:55:09;;;;;;;;;;;14.80;57.10;;;;;;5076355;28;19924;-81
2022/02/11 14:57:34;;;;;;;;;;;14.70;58.50;;;;;;5077564;28;19908;-84
2022/02/11 15:00:00;;;;;;;;;;;14.60;58.50;;;;;;5066561;28;19913;-84
2022/02/11 15:02:26;;;;;;;;;;;14.50;59.50;;;;;;5076032;28;19912;-82
2022/02/11 15:04:54;;;;;;;;;;;14.40;59.70;;;;;;5073355;28;19908;-77
2022/02/11 15:07:20;;;;;;;;;;;14.30;60.50;;;;;;5077747;28;20440;-78
2022/02/11 15:09:46;;;;;;;;;;;14.30;59.40;;;;;;5072320;28;19995;-80
2022/02/11 15:12:11;;;;;;;;;;;14.20;58.60;;;;;;5072933;28;20395;-83
2022/02/11 15:14:37;;;;;;;;;;;14.10;58.40;;;;;;5069719;28;19920;-84
2022/02/11 15:17:03;;;;;;;;;;;14.00;58.90;;;;;;5074785;28;19970;-84
2022/02/11 15:19:29;;;;;;;;;;;13.80;59.60;;;;;;5075736;28;19921;-82
2022/02/11 15:21:55;;;;;;;;;;;13.70;58.90;;;;;;5073408;28;19915;-78
2022/02/11 15:24:20;;;;;;;;;;;13.60;59.50;;;;;;5067846;28;19959;-80
2022/02/11 15:26:46;;;;;;;;;;;13.60;60.60;;;;;;5071513;28;19916;-78
2022/02/11 15:29:12;;;;;;;;;;;13.50;61.10;;;;;;5076490;28;19912;-79
2022/02/11 15:31:38;;;;;;;;;;;13.40;61.70;;;;;;5067539;28;19916;-78
2022/02/11 15:34:05;;;;;;;;;;;13.30;61.90;;;;;;5070523;28;20345;-77
2022/02/11 15:36:31;;;;;;;;;;;13.20;61.10;;;;;;5066115;28;20601;-76
2022/02/11 15:38:57;;;;;;;;;;;13.20;61.70;;;;;;5076724;28;19970;-80
2022/02/11 15:41:23;;;;;;;;;;;13.10;60.20;;;;;;5075476;28;19962;-80
2022/02/11 15:43:49;;;;;;;;;;;13.00;61.00;;;;;;5071803;28;19920;-78
2022/02/11 15:46:14;;;;;;;;;;;12.90;61.30;;;;;;5073581;28;19920;-80
2022/02/11 15:48:40;;;;;;;;;;;12.80;61.50;;;;;;5072637;28;20399;-78
2022/02/11 15:51:07;;;;;;;;;;;12.70;60.70;;;;;;5070050;28;19913;-79
2022/02/11 15:53:32;;;;;;;;;;;12.60;61.20;;;;;;5077796;28;19954;-78
2022/02/11 15:55:58;;;;;;;;;;;12.50;61.70;;;;;;5076593;28;19908;-76
2022/02/11 15:58:24;;;;;;;;;;;12.40;60.50;;;;;;5074594;28;19913;-77
2022/02/11 16:00:50;;;;;;;;;;;12.30;61.30;;;;;;5076132;28;19916;-77
2022/02/11 16:03:16;;;;;;;;;;;12.20;61.70;;;;;;5075922;28;19919;-77
2022/02/11 16:05:42;;;;;;;;;;;12.20;61.80;;;;;;5070593;28;19912;-77
2022/02/11 16:08:07;;;;;;;;;;;12.10;62.90;;;;;;5076255;28;19912;-78
2022/02/11 16:10:33;;;;;;;;;;;12.00;62.60;;;;;;5074354;28;19912;-78
2022/02/11 16:12:59;;;;;;;;;;;11.90;61.90;;;;;;5070090;28;19909;-79
2022/02/11 16:15:26;;;;;;;;;;;11.90;61.30;;;;;;5076670;28;19920;-78
2022/02/11 16:18:01;;;;;;;;;;;11.80;62.40;;;;;;5079073;28;19912;-79
2022/02/11 16:20:27;;;;;;;;;;;11.70;63.20;;;;;;5062002;28;19916;-78
2022/02/11 16:22:52;;;;;;;;;;;11.70;62.60;;;;;;5073298;28;19913;-81
2022/02/11 16:25:18;;;;;;;;;;;11.60;62.70;;;;;;5066911;28;19919;-80
2022/02/11 16:27:44;;;;;;;;;;;11.50;62.80;;;;;;5072387;28;19996;-79
2022/02/11 16:30:10;;;;;;;;;;;11.50;62.10;;;;;;5069943;28;20265;-80
2022/02/11 16:32:35;;;;;;;;;;;11.40;62.80;;;;;;5070518;28;20280;-79
2022/02/11 16:35:01;;;;;;;;;;;11.40;61.60;;;;;;5076881;28;19999;-79
2022/02/11 16:37:27;;;;;;;;;;;11.30;62.50;;;;;;5072576;28;19941;-79
2022/02/11 16:39:52;;;;;;;;;;;11.20;64.10;;;;;;5063270;28;20283;-78
2022/02/11 16:42:18;;;;;;;;;;;11.20;65.80;;;;;;5073420;28;19912;-79
2022/02/11 16:44:44;;;;;;;;;;;11.10;65.60;;;;;;5074966;28;19925;-78
2022/02/11 16:47:10;;;;;;;;;;;11.00;64.40;;;;;;5076447;28;19921;-79
2022/02/11 16:49:35;;;;;;;;;;;11.00;64.00;;;;;;5075972;28;19976;-79
2022/02/11 16:52:04;;;;;;;;;;;10.90;64.40;;;;;;5074777;28;19923;-78
2022/02/11 16:54:30;;;;;;;;;;;10.80;64.80;;;;;;5074464;28;19943;-78
2022/02/11 16:56:56;;;;;;;;;;;10.70;65.50;;;;;;5078031;28;20318;-77
2022/02/11 16:59:21;;;;;;;;;;;10.70;65.80;;;;;;5078683;28;19912;-81
2022/02/11 17:01:47;;;;;;;;;;;10.60;65.20;;;;;;5078511;28;20275;-77
2022/02/11 17:04:13;;;;;;;;;;;10.50;65.70;;;;;;5080213;28;20009;-80
2022/02/11 17:06:39;;;;;;;;;;;10.50;65.40;;;;;;5080091;28;19913;-79
2022/02/11 17:09:04;;;;;;;;;;;10.40;64.90;;;;;;5080444;28;19912;-73
2022/02/11 17:11:31;;;;;;;;;;;10.30;65.90;;;;;;5079814;28;19922;-78
2022/02/11 17:13:57;;;;;;;;;;;10.20;66.00;;;;;;5080141;28;19952;-83
2022/02/11 17:16:22;;;;;;;;;;;10.20;66.70;;;;;;5080240;28;19912;-83
2022/02/11 17:18:48;;;;;;;;;;;10.10;67.10;;;;;;5080370;28;19913;-84
2022/02/11 17:21:14;;;;;;;;;;;10.10;67.70;;;;;;5078699;28;19965;-81
2022/02/11 17:23:40;;;;;;;;;;;10.00;67.80;;;;;;5080117;28;19995;-82
2022/02/11 17:26:05;;;;;;;;;;;9.90;67.60;;;;;;5078892;28;19921;-85
2022/02/11 17:28:31;;;;;;;;;;;9.90;68.20;;;;;;5079405;28;19919;-87
2022/02/11 17:30:57;;;;;;;;;;;9.80;68.50;;;;;;5078973;28;20674;-84
2022/02/11 17:33:25;;;;;;;;;;;9.70;68.70;;;;;;5077445;28;20053;-86
2022/02/11 17:35:50;;;;;;;;;;;9.60;69.00;;;;;;5079869;28;19912;-85
2022/02/11 17:38:16;;;;;;;;;;;9.50;69.20;;;;;;5080572;28;19958;-86
2022/02/11 17:40:42;;;;;;;;;;;9.50;69.40;;;;;;5078497;28;19920;-86
2022/02/11 17:43:10;;;;;;;;;;;9.40;69.60;;;;;;5073327;28;20295;-86
2022/02/11 17:45:36;;;;;;;;;;;9.30;69.80;;;;;;5060321;28;20319;-84
2022/02/11 17:48:02;;;;;;;;;;;9.20;70.00;;;;;;5060368;28;19909;-86
2022/02/11 17:50:28;;;;;;;;;;;9.20;70.20;;;;;;5058583;28;20000;-86
2022/02/11 17:52:54;;;;;;;;;;;9.10;70.30;;;;;;5058597;28;19917;-85
2022/02/11 17:55:20;;;;;;;;;;;9.00;70.50;;;;;;5060032;28;19939;-85
2022/02/11 17:57:46;;;;;;;;;;;9.00;70.50;;;;;;5059102;28;19923;-85
2022/02/11 18:00:12;;;;;;;;;;;8.90;70.40;;;;;;5058910;28;20380;-85
2022/02/11 18:02:39;;;;;;;;;;;8.80;70.60;;;;;;5059657;28;19985;-85
2022/02/11 18:05:06;;;;;;;;;;;8.80;70.70;;;;;;5059645;28;19939;-85
2022/02/11 18:07:38;;;;;;;;;;;8.70;70.90;;;;;;5059800;28;20249;-86
2022/02/11 18:10:08;;;;;;;;;;;8.60;71.00;;;;;;5055674;28;19921;-84
2022/02/11 18:12:33;;;;;;;;;;;8.60;71.30;;;;;;5057785;28;19920;-79
2022/02/11 18:14:59;;;;;;;;;;;8.50;71.40;;;;;;5058476;28;19919;-81
2022/02/11 18:17:27;;;;;;;;;;;8.40;71.50;;;;;;5055152;28;19919;-84
2022/02/11 18:19:53;;;;;;;;;;;8.40;71.70;;;;;;5057184;28;20451;-85
2022/02/11 18:22:19;;;;;;;;;;;8.30;71.90;;;;;;5043919;28;19953;-84
2022/02/11 18:24:46;;;;;;;;;;;8.30;72.00;;;;;;5058072;28;20403;-83